Time;durP1;ratioP1;P1;durP2;ratioP2;P2;SDS_P1;SDS_P2;PMS_P1;PMS_P2;Temp;Humidity;BMP_temperature;BMP_pressure;BME280_temperature;BME280_humidity;BME280_pressure;Samples;Min_cycle;Max_cycle;Signal;HPM_P1;HPM_P2
2022/11/05 00:09:38;;;;;;;40.47;19.50;;;13.50;93.60;;;13.71;61.13;94542.41;5004581;28;20450;-56
2022/11/05 00:17:37;;;;;;;45.00;20.93;;;13.50;93.90;;;13.68;61.49;94544.53;5007705;28;20476;-55
2022/11/05 00:20:06;;;;;;;37.93;19.90;;;13.50;93.90;;;13.68;61.48;94539.25;4998915;28;20485;-57
2022/11/05 00:25:20;;;;;;;37.07;18.20;;;13.50;94.00;;;13.69;61.90;94532.97;5009118;28;20564;-56
2022/11/05 00:27:49;;;;;;;34.63;20.37;;;13.50;94.20;;;13.69;61.79;94532.97;5016608;28;20444;-56
2022/11/05 00:30:19;;;;;;;42.30;19.83;;;13.50;94.30;;;13.69;62.06;94532.97;5010450;28;20555;-56
2022/11/05 00:32:47;;;;;;;34.87;20.20;;;13.50;94.40;;;13.69;61.55;94532.97;5018821;28;20815;-57
2022/11/05 00:35:15;;;;;;;35.27;19.73;;;13.50;94.20;;;13.68;61.82;94526.03;5009532;28;20482;-55
2022/11/05 00:37:43;;;;;;;35.50;19.43;;;13.50;94.40;;;13.68;62.48;94529.53;5005599;28;20986;-56
2022/11/05 00:40:12;;;;;;;30.00;18.47;;;13.50;94.60;;;13.69;62.07;94525.06;5002886;28;20559;-55
2022/11/05 00:45:26;;;;;;;33.73;19.63;;;13.40;94.60;;;13.68;61.98;94526.88;5013555;28;20476;-57
2022/11/05 00:50:35;;;;;;;32.67;17.90;;;13.50;94.50;;;13.68;62.36;94515.47;4973609;28;20472;-54
2022/11/05 00:53:04;;;;;;;34.27;19.20;;;13.50;94.70;;;13.70;62.31;94521.44;5014296;28;20464;-55
2022/11/05 00:55:34;;;;;;;32.23;20.03;;;13.50;94.70;;;13.70;62.29;94524.06;5007328;28;21008;-56
2022/11/05 00:58:02;;;;;;;31.20;19.03;;;13.50;94.60;;;13.70;62.53;94522.25;5006218;28;21035;-53
2022/11/05 01:00:30;;;;;;;35.93;21.57;;;13.50;94.80;;;13.70;62.16;94516.13;5007539;28;20995;-54
2022/11/05 01:02:59;;;;;;;35.43;21.10;;;13.50;94.50;;;13.70;62.17;94518.78;5009739;28;20457;-55
2022/11/05 01:05:26;;;;;;;30.13;19.47;;;13.50;94.60;;;13.69;62.01;94515.28;5017852;28;20464;-55
2022/11/05 01:07:53;;;;;;;30.03;18.90;;;13.50;94.60;;;13.69;62.06;94511.84;5015114;28;20531;-56
2022/11/05 01:10:22;;;;;;;30.93;18.17;;;13.50;94.70;;;13.68;62.51;94505.72;5012280;28;20492;-55
2022/11/05 01:12:50;;;;;;;29.47;19.83;;;13.50;94.80;;;13.68;62.78;94505.72;5010104;28;20469;-55
2022/11/05 01:15:17;;;;;;;41.97;19.93;;;13.50;94.90;;;13.66;62.23;94498.97;5011060;28;20580;-55
2022/11/05 01:17:45;;;;;;;35.97;19.73;;;13.40;94.70;;;13.64;62.00;94496.47;5008684;28;20993;-54
2022/11/05 01:20:12;;;;;;;35.20;21.10;;;13.40;94.70;;;13.61;62.76;94489.72;5011612;28;20493;-56
2022/11/05 01:22:39;;;;;;;31.57;21.20;;;13.40;94.90;;;13.60;62.43;94501.28;5013034;28;20515;-58
2022/11/05 01:25:08;;;;;;;35.93;19.50;;;13.40;94.80;;;13.60;62.78;94481.94;5010938;28;20495;-55
2022/11/05 01:27:38;;;;;;;37.07;20.13;;;13.40;95.00;;;13.59;62.84;94491.69;5012531;28;20497;-56
2022/11/05 01:30:07;;;;;;;29.70;20.80;;;13.40;95.20;;;13.58;62.29;94491.88;5006157;28;20810;-55
2022/11/05 01:32:35;;;;;;;46.70;19.23;;;13.40;94.90;;;13.55;62.78;94486.91;5007729;28;20465;-56
2022/11/05 01:35:02;;;;;;;30.93;20.20;;;13.40;95.20;;;13.53;62.69;94494.19;5016435;28;20797;-55
2022/11/05 01:37:29;;;;;;;37.87;20.23;;;13.30;95.00;;;13.52;62.67;94490.72;5013307;28;20450;-55
2022/11/05 01:39:57;;;;;;;32.47;20.20;;;13.30;95.00;;;13.51;62.70;94482.94;5016007;28;20532;-55
2022/11/05 01:42:25;;;;;;;30.90;19.70;;;13.30;95.10;;;13.51;62.73;94469.75;5010585;28;20465;-55
2022/11/05 01:45:00;;;;;;;37.17;20.83;;;13.30;95.10;;;13.50;62.72;94468.94;5016120;28;20993;-55
2022/11/05 01:47:41;;;;;;;37.83;21.30;;;13.30;95.00;;;13.50;62.76;94458.34;5010348;28;20460;-55
2022/11/05 01:50:41;;;;;;;45.00;21.63;;;13.30;95.20;;;13.49;63.13;94461.97;5014932;28;21082;-57
2022/11/05 01:53:20;;;;;;;35.77;20.17;;;13.30;95.30;;;13.49;63.00;94461.97;5005516;28;20457;-55
2022/11/05 01:55:51;;;;;;;32.23;18.10;;;13.30;95.30;;;13.45;63.03;94461.50;5014465;28;20492;-56
2022/11/05 01:58:21;;;;;;;44.67;19.60;;;13.20;95.10;;;13.43;62.78;94463.50;5010504;28;20452;-54
2022/11/05 02:00:49;;;;;;;34.20;20.50;;;13.20;95.20;;;13.41;62.58;94443.50;5016139;28;20982;-56
2022/11/05 02:03:17;;;;;;;34.37;20.70;;;13.20;95.20;;;13.39;62.89;94448.97;5013905;28;20460;-56
2022/11/05 02:05:44;;;;;;;32.17;20.20;;;13.20;95.20;;;13.39;63.12;94450.78;5008792;28;20612;-55
2022/11/05 02:08:17;;;;;;;39.50;19.80;;;13.20;95.30;;;13.35;62.85;94450.28;5013200;28;20470;-57
2022/11/05 02:10:45;;;;;;;32.77;18.67;;;13.20;95.20;;;13.33;62.90;94440.84;5009026;28;20481;-54
2022/11/05 02:13:12;;;;;;;33.40;19.50;;;13.10;95.30;;;13.31;63.17;94450.75;5010627;28;20508;-53
2022/11/05 02:15:54;;;;;;;31.60;19.53;;;13.10;95.30;;;13.27;63.25;94439.69;5016372;28;21016;-54
2022/11/05 02:18:28;;;;;;;38.00;20.70;;;13.10;95.30;;;13.24;63.04;94448.78;5011522;28;20457;-54
2022/11/05 02:21:03;;;;;;;44.17;21.87;;;13.00;95.40;;;13.23;63.57;94452.44;5001517;28;21033;-54
2022/11/05 02:24:11;;;;;;;36.57;21.00;;;13.00;95.40;;;13.18;63.64;94444.16;5012343;28;20484;-55
2022/11/05 02:27:14;;;;;;;33.23;18.63;;;13.00;95.70;;;13.15;63.73;94455.09;5006881;28;20493;-55
2022/11/05 02:30:21;;;;;;;38.13;21.87;;;13.00;95.70;;;13.15;63.98;94451.59;5009162;28;21106;-56
2022/11/05 02:33:03;;;;;;;32.03;19.90;;;13.00;95.90;;;13.11;63.72;94437.91;4990531;28;20458;-55
2022/11/05 02:35:49;;;;;;;37.10;20.50;;;12.90;95.60;;;13.06;63.85;94441.03;5005838;28;20580;-55
2022/11/05 02:38:24;;;;;;;43.47;19.90;;;12.90;95.70;;;13.05;63.71;94451.78;5005925;28;20968;-57
2022/11/05 02:40:57;;;;;;;34.20;20.63;;;12.90;95.90;;;13.04;63.63;94447.47;5012840;28;20500;-55
2022/11/05 02:43:28;;;;;;;40.23;21.20;;;12.90;95.90;;;13.02;63.48;94445.00;5004413;28;21039;-56
2022/11/05 02:46:03;;;;;;;37.20;20.37;;;12.90;95.90;;;13.01;63.81;94442.53;5008939;28;20481;-56
2022/11/05 02:48:35;;;;;;;35.70;21.67;;;12.80;95.80;;;12.98;64.04;94437.56;5010069;28;20457;-56
2022/11/05 02:51:05;;;;;;;35.33;18.60;;;12.80;96.10;;;12.97;63.45;94446.50;5008208;28;21294;-56
2022/11/05 02:53:37;;;;;;;40.77;21.43;;;12.80;95.80;;;12.96;63.90;94447.47;5015407;28;20476;-56
2022/11/05 02:56:07;;;;;;;36.87;19.90;;;12.80;95.80;;;12.94;63.83;94444.19;5009222;28;20543;-55
2022/11/05 02:58:35;;;;;;;36.63;22.20;;;12.80;96.30;;;12.90;63.59;94439.25;5010041;28;20523;-56
2022/11/05 03:01:06;;;;;;;40.07;20.37;;;12.70;95.80;;;12.90;64.08;94441.03;5002771;28;20588;-54
2022/11/05 03:03:36;;;;;;;34.50;20.20;;;12.70;96.10;;;12.87;64.18;94442.22;5010030;28;20445;-55
2022/11/05 03:06:27;;;;;;;35.93;20.27;;;12.70;96.00;;;12.87;64.27;94447.50;5013578;28;20458;-57
2022/11/05 03:09:14;;;;;;;38.53;20.27;;;12.70;96.10;;;12.85;64.07;94452.09;5008093;28;20536;-55
2022/11/05 03:11:47;;;;;;;38.60;20.97;;;12.70;96.10;;;12.83;64.02;94450.63;5009211;28;20486;-54
2022/11/05 03:14:20;;;;;;;35.00;21.83;;;12.70;96.00;;;12.81;63.88;94455.22;5007266;28;20558;-57
2022/11/05 03:16:52;;;;;;;48.23;21.80;;;12.70;96.10;;;12.77;63.92;94449.44;5013477;28;20541;-56
2022/11/05 03:19:22;;;;;;;37.47;20.97;;;12.60;96.10;;;12.76;64.35;94452.25;5011742;28;20455;-57
2022/11/05 03:21:52;;;;;;;31.17;21.20;;;12.60;96.20;;;12.74;64.18;94441.84;5009521;28;20501;-55
2022/11/05 03:24:22;;;;;;;38.03;20.53;;;12.60;96.30;;;12.74;64.29;94445.31;5006550;28;20465;-56
2022/11/05 03:26:52;;;;;;;38.30;21.27;;;12.60;96.30;;;12.73;64.24;94445.47;5012603;28;20579;-56
2022/11/05 03:29:22;;;;;;;35.63;20.70;;;12.60;96.40;;;12.72;64.02;94449.13;5005585;28;20512;-55
2022/11/05 03:31:52;;;;;;;33.23;20.80;;;12.50;96.30;;;12.71;64.63;94453.56;5009000;28;20558;-54
2022/11/05 03:34:21;;;;;;;41.77;21.60;;;12.60;96.60;;;12.68;64.01;94450.44;5010073;28;20963;-54
2022/11/05 03:36:52;;;;;;;37.43;20.67;;;12.50;96.40;;;12.67;64.44;94454.03;5013246;28;20469;-56
2022/11/05 03:39:24;;;;;;;47.10;22.40;;;12.50;96.60;;;12.67;64.91;94477.78;5012206;28;20472;-55
2022/11/05 03:41:52;;;;;;;37.27;20.53;;;12.50;96.90;;;12.66;64.69;94473.53;5007478;28;20493;-58
2022/11/05 03:44:23;;;;;;;32.13;20.53;;;12.50;96.80;;;12.67;64.70;94494.47;5009806;28;20536;-55
2022/11/05 03:46:52;;;;;;;48.83;21.77;;;12.50;96.90;;;12.69;64.99;94484.56;5005240;28;20937;-57
2022/11/05 03:49:22;;;;;;;34.47;20.97;;;12.50;97.00;;;12.73;64.97;94487.69;5008406;28;20511;-55
2022/11/05 03:51:53;;;;;;;35.97;21.27;;;12.50;97.00;;;12.76;65.09;94495.28;5005638;28;20490;-55
2022/11/05 03:54:20;;;;;;;34.60;21.50;;;12.60;97.10;;;12.79;64.94;94486.22;5011952;28;20961;-57
2022/11/05 03:56:55;;;;;;;44.17;21.90;;;12.60;97.10;;;12.80;64.73;94494.00;5007145;28;21071;-55
2022/11/05 03:59:22;;;;;;;56.03;21.87;;;12.60;97.10;;;12.80;64.77;94494.00;5007013;28;20508;-55
2022/11/05 04:01:50;;;;;;;33.87;21.63;;;12.60;96.90;;;12.80;64.78;94494.00;4998622;28;20547;-56
2022/11/05 04:04:18;;;;;;;34.10;21.10;;;12.60;97.00;;;12.79;64.78;94481.78;5010753;28;20992;-55
2022/11/05 04:14:59;;;;;;;40.40;21.20;;;12.60;97.10;;;12.79;64.79;94496.78;5004665;28;20571;-56
2022/11/05 04:17:26;;;;;;;45.20;22.60;;;12.60;97.00;;;12.78;64.50;94495.97;5012223;28;20461;-56
2022/11/05 04:25:23;;;;;;;47.33;22.23;;;12.60;97.00;;;12.75;64.85;94496.28;5005876;28;20986;-55
2022/11/05 04:27:51;;;;;;;38.07;20.67;;;12.60;97.10;;;12.75;64.91;94493.66;5010951;28;20982;-57
2022/11/05 04:30:18;;;;;;;42.07;22.40;;;12.60;97.10;;;12.74;65.02;94505.19;5012454;28;20473;-54
2022/11/05 04:33:04;;;;;;;34.30;21.93;;;12.50;97.20;;;12.73;65.64;94504.38;5002695;28;20599;-55
2022/11/05 04:35:33;;;;;;;40.03;23.23;;;12.60;97.50;;;12.73;64.95;94508.81;5001893;28;20489;-55
2022/11/05 04:38:01;;;;;;;34.80;23.00;;;12.50;97.30;;;12.73;65.07;94514.09;5011426;28;20982;-55
2022/11/05 04:40:29;;;;;;;36.23;22.70;;;12.60;97.30;;;12.74;64.98;94515.75;5003996;28;20484;-56
2022/11/05 04:42:56;;;;;;;41.20;22.97;;;12.60;97.30;;;12.76;64.92;94515.59;5010242;28;20501;-54
2022/11/05 04:45:24;;;;;;;46.73;24.47;;;12.60;97.30;;;12.76;65.10;94512.94;5004890;28;20488;-57
2022/11/05 04:47:51;;;;;;;34.10;21.40;;;12.60;97.30;;;12.78;65.09;94516.25;5007915;28;20873;-56
2022/11/05 04:50:20;;;;;;;44.93;22.90;;;12.60;97.50;;;12.76;65.09;94516.41;5005762;28;20481;-55
2022/11/05 04:52:47;;;;;;;39.47;21.83;;;12.60;97.40;;;12.75;65.00;94522.69;5001891;28;20470;-55
2022/11/05 04:55:14;;;;;;;45.43;22.70;;;12.60;97.40;;;12.74;65.07;94516.56;5007819;28;21040;-56
2022/11/05 04:57:42;;;;;;;47.00;23.13;;;12.60;97.20;;;12.71;65.13;94516.88;5014357;28;20827;-55
2022/11/05 05:00:10;;;;;;;43.30;22.27;;;12.60;97.40;;;12.72;65.25;94507.19;5009616;28;20489;-56
2022/11/05 05:02:38;;;;;;;39.60;21.10;;;12.50;97.40;;;12.72;65.37;94513.28;5010210;28;20520;-57
2022/11/05 05:05:06;;;;;;;43.20;23.47;;;12.60;97.50;;;12.73;65.38;94511.44;5010466;28;20480;-56
2022/11/05 05:07:34;;;;;;;36.07;20.40;;;12.60;97.50;;;12.76;65.26;94515.59;5007783;28;20489;-57
2022/11/05 05:10:02;;;;;;;39.53;23.40;;;12.60;97.50;;;12.77;65.47;94527.81;5009979;28;20481;-56
2022/11/05 05:12:29;;;;;;;42.33;24.53;;;12.60;97.70;;;12.77;65.50;94531.25;5005504;28;20877;-55
2022/11/05 05:14:57;;;;;;;43.33;22.57;;;12.60;97.50;;;12.79;65.47;94529.28;5007657;28;20485;-55
2022/11/05 05:17:25;;;;;;;44.70;21.47;;;12.60;97.50;;;12.80;65.23;94541.50;5007166;28;20945;-56
2022/11/05 05:22:38;;;;;;;46.10;25.27;;;12.70;97.60;;;12.81;65.23;94537.03;5016325;28;20480;-56
2022/11/05 05:25:05;;;;;;;37.70;22.20;;;12.70;97.60;;;12.83;65.59;94540.34;5008333;28;20838;-56
2022/11/05 05:27:33;;;;;;;43.60;23.70;;;12.70;97.60;;;12.83;65.35;94546.44;5004924;28;20897;-53
2022/11/05 05:30:00;;;;;;;38.40;22.13;;;12.60;97.50;;;12.84;65.21;94548.09;5008968;28;20480;-56
2022/11/05 05:32:27;;;;;;;46.20;22.80;;;12.70;97.60;;;12.86;64.99;94551.41;5008043;28;20465;-54
2022/11/05 05:34:54;;;;;;;36.13;21.67;;;12.70;97.40;;;12.88;65.22;94554.69;5014547;28;20858;-54
2022/11/05 05:37:22;;;;;;;56.10;26.33;;;12.70;97.50;;;12.94;65.40;94552.41;5013664;28;21014;-58
2022/11/05 05:39:52;;;;;;;45.37;25.53;;;12.80;97.70;;;12.96;65.21;94556.53;5014262;28;20472;-57
2022/11/05 05:42:20;;;;;;;37.70;22.97;;;12.80;97.50;;;13.00;65.41;94564.97;5015477;28;20473;-55
2022/11/05 05:44:47;;;;;;;42.37;22.93;;;12.80;97.40;;;13.04;64.90;94572.41;5012458;28;21034;-55
2022/11/05 05:47:14;;;;;;;50.00;24.13;;;12.80;97.40;;;13.12;64.60;94570.75;5012767;28;20461;-56
2022/11/05 05:49:41;;;;;;;50.33;22.30;;;12.90;97.40;;;13.19;64.78;94566.47;5014309;28;20458;-53
2022/11/05 05:52:09;;;;;;;55.10;22.93;;;13.00;97.40;;;13.28;64.96;94571.59;5019837;28;20454;-57
2022/11/05 05:54:36;;;;;;;44.17;22.83;;;13.00;97.20;;;13.40;64.26;94568.66;5019362;28;20453;-55
2022/11/05 05:57:05;;;;;;;38.83;24.27;;;13.20;97.20;;;13.52;64.18;94566.53;5013353;28;20523;-56
2022/11/05 05:59:32;;;;;;;48.67;23.73;;;13.30;97.00;;;13.62;63.67;94570.66;5019529;28;20453;-55
2022/11/05 06:01:59;;;;;;;57.23;23.00;;;13.40;96.70;;;13.72;63.57;94567.81;5015019;28;20836;-55
2022/11/05 06:04:26;;;;;;;45.90;22.80;;;13.50;96.50;;;13.83;63.48;94573.78;5011114;28;21095;-55
2022/11/05 06:06:54;;;;;;;55.53;23.87;;;13.60;96.50;;;13.97;62.96;94571.28;5011456;28;20485;-56
2022/11/05 06:09:21;;;;;;;50.10;29.63;;;13.70;96.30;;;14.08;62.77;94566.59;5010986;28;20452;-56
2022/11/05 06:11:48;;;;;;;48.23;24.83;;;13.80;95.90;;;14.12;62.12;94560.81;5009935;28;20482;-57
2022/11/05 06:14:17;;;;;;;56.40;24.70;;;13.90;95.70;;;14.13;62.21;94556.38;5010896;28;20477;-56
2022/11/05 06:16:44;;;;;;;43.47;24.30;;;13.90;95.60;;;14.13;62.37;94562.47;5015533;28;20480;-53
2022/11/05 06:19:11;;;;;;;48.90;22.53;;;13.90;95.70;;;14.19;62.37;94562.78;5010742;28;20454;-54
2022/11/05 06:21:39;;;;;;;45.57;23.63;;;13.90;95.70;;;14.27;62.25;94566.25;5001290;28;20523;-56
2022/11/05 06:24:07;;;;;;;45.37;24.30;;;14.00;95.60;;;14.34;62.40;94564.56;5013199;28;20466;-55
2022/11/05 06:26:34;;;;;;;39.47;24.00;;;14.10;95.60;;;14.46;62.02;94561.56;5009695;28;20489;-56
2022/11/05 06:29:01;;;;;;;42.80;24.73;;;14.20;95.60;;;14.50;61.91;94566.31;5007180;28;20500;-57
2022/11/05 06:31:30;;;;;;;44.13;24.50;;;14.30;95.40;;;14.54;61.82;94569.44;5010048;28;20841;-55
2022/11/05 06:33:57;;;;;;;46.73;24.23;;;14.30;95.20;;;14.59;61.80;94563.63;5008988;28;20466;-56
2022/11/05 06:36:25;;;;;;;44.10;24.63;;;14.30;95.20;;;14.63;61.66;94565.81;5011242;28;20505;-56
2022/11/05 06:38:52;;;;;;;42.63;24.00;;;14.40;95.10;;;14.68;61.38;94562.63;5005018;28;20987;-56
2022/11/05 06:41:19;;;;;;;52.90;32.23;;;14.40;95.00;;;14.70;61.18;94564.13;5013039;28;20477;-56
2022/11/05 06:43:46;;;;;;;52.77;32.97;;;14.50;94.90;;;14.73;61.44;94567.41;5008127;28;20810;-56
2022/11/05 06:46:14;;;;;;;43.03;29.07;;;14.50;94.90;;;14.76;61.36;94559.13;5009565;28;20474;-55
2022/11/05 06:48:42;;;;;;;59.10;31.07;;;14.50;94.90;;;14.84;61.25;94559.06;5012517;28;20453;-56
2022/11/05 06:51:10;;;;;;;58.00;31.33;;;14.60;94.90;;;15.01;61.59;94562.47;5010080;28;20528;-56
2022/11/05 06:53:37;;;;;;;46.70;30.00;;;14.80;95.00;;;15.28;61.04;94563.78;5011717;28;20458;-56
2022/11/05 06:56:05;;;;;;;44.67;29.00;;;15.00;95.00;;;15.54;60.67;94554.66;5010072;28;20484;-56
2022/11/05 06:58:32;;;;;;;46.13;28.10;;;15.20;94.70;;;15.72;59.95;94549.88;5006033;28;20466;-55
2022/11/05 07:01:03;;;;;;;51.33;26.73;;;15.50;94.30;;;15.86;59.73;94545.59;5002549;28;20501;-55
2022/11/05 07:03:30;;;;;;;43.87;26.60;;;15.60;93.90;;;16.11;59.45;94548.84;5001453;28;20489;-55
2022/11/05 07:05:59;;;;;;;51.83;26.03;;;15.90;93.70;;;16.35;58.81;94554.09;5007013;28;20484;-55
2022/11/05 07:08:26;;;;;;;54.13;27.60;;;16.00;93.30;;;16.52;58.36;94538.78;5007688;28;20484;-56
2022/11/05 07:10:54;;;;;;;44.93;26.87;;;16.20;92.90;;;16.69;57.94;94531.44;5013372;28;20488;-56
2022/11/05 07:13:21;;;;;;;53.57;26.40;;;16.40;92.50;;;16.83;57.53;94533.25;5010100;28;20476;-57
2022/11/05 07:15:48;;;;;;;67.57;24.70;;;16.50;92.00;;;16.97;57.23;94539.56;5018101;28;20476;-54
2022/11/05 07:18:15;;;;;;;43.77;23.80;;;16.70;91.70;;;17.14;57.09;94537.50;5008668;28;20913;-55
2022/11/05 07:20:43;;;;;;;40.13;23.67;;;16.90;91.40;;;17.36;56.60;94544.44;5009682;28;20466;-55
2022/11/05 07:23:12;;;;;;;45.07;25.77;;;17.10;91.00;;;17.55;56.41;94550.97;5009622;28;21110;-56
2022/11/05 07:25:40;;;;;;;39.53;23.57;;;17.30;90.60;;;17.69;55.61;94538.63;5013937;28;20885;-55
2022/11/05 07:28:07;;;;;;;50.70;27.20;;;17.50;89.80;;;17.77;54.90;94539.47;5011456;28;20441;-58
2022/11/05 07:30:35;;;;;;;43.63;25.20;;;17.60;89.20;;;17.79;55.13;94540.94;5011359;28;20472;-55
2022/11/05 07:33:02;;;;;;;42.40;27.60;;;17.60;88.40;;;17.76;54.73;94536.00;5002298;28;21198;-53
2022/11/05 07:35:29;;;;;;;50.73;25.63;;;17.60;87.60;;;17.77;54.97;94532.34;5009505;28;21013;-58
2022/11/05 07:37:57;;;;;;;41.37;24.10;;;17.60;87.50;;;17.86;54.63;94531.19;5010412;28;20954;-58
2022/11/05 07:40:27;;;;;;;49.53;25.67;;;17.60;87.10;;;17.94;54.37;94532.06;5012034;28;20903;-58
2022/11/05 07:42:56;;;;;;;37.90;22.10;;;17.70;86.80;;;18.10;53.71;94526.47;5007584;28;20481;-55
2022/11/05 07:45:23;;;;;;;37.50;22.53;;;17.80;86.40;;;18.43;53.95;94525.81;5017211;28;20998;-57
2022/11/05 07:47:52;;;;;;;34.50;21.53;;;18.00;86.00;;;18.88;53.14;94520.94;5010610;28;20490;-55
2022/11/05 07:50:20;;;;;;;38.13;23.17;;;18.40;85.60;;;19.40;52.12;94512.47;5015319;28;20539;-56
2022/11/05 07:52:48;;;;;;;48.03;24.30;;;18.90;85.00;;;19.91;51.44;94519.03;5004216;28;20466;-58
2022/11/05 07:55:15;;;;;;;44.83;25.60;;;19.30;83.20;;;20.39;50.37;94522.28;5008443;28;20469;-58
2022/11/05 07:57:44;;;;;;;47.43;25.27;;;19.80;80.40;;;20.83;49.60;94525.25;4997596;28;20862;-56
2022/11/05 08:00:14;;;;;;;43.53;25.03;;;20.20;79.00;;;21.36;48.94;94518.78;5011915;28;20473;-54
2022/11/05 08:02:41;;;;;;;42.07;25.33;;;20.70;77.20;;;21.92;48.14;94511.00;5000042;28;21046;-55
2022/11/05 08:05:08;;;;;;;46.90;24.33;;;21.30;76.30;;;22.49;47.38;94517.06;5011630;28;20476;-56
2022/11/05 08:07:36;;;;;;;48.07;21.67;;;21.80;74.10;;;23.02;46.74;94510.28;5005946;28;20469;-59
2022/11/05 08:10:03;;;;;;;35.00;20.23;;;22.40;72.10;;;23.47;45.25;94498.34;5013114;28;20476;-56
2022/11/05 08:12:31;;;;;;;37.70;20.87;;;22.80;69.70;;;23.82;44.36;94502.97;5007880;28;20896;-57
2022/11/05 08:14:59;;;;;;;29.03;19.33;;;23.20;68.40;;;23.98;42.98;94502.31;5011768;28;20480;-56
2022/11/05 08:17:27;;;;;;;40.97;21.03;;;23.40;65.40;;;23.98;42.66;94506.84;5002754;28;20466;-57
2022/11/05 08:19:54;;;;;;;33.77;21.33;;;23.50;63.40;;;23.85;43.66;94513.28;5006668;28;20476;-57
2022/11/05 08:22:21;;;;;;;48.37;22.60;;;23.50;63.20;;;23.85;43.13;94505.22;5003758;28;20493;-56
2022/11/05 08:24:48;;;;;;;36.80;21.77;;;23.40;63.50;;;24.02;42.80;94507.22;5010082;28;20441;-56
2022/11/05 08:27:16;;;;;;;35.77;22.57;;;23.50;63.60;;;24.19;43.12;94510.84;5012126;28;20457;-57
2022/11/05 08:29:43;;;;;;;30.60;20.70;;;23.70;62.50;;;24.38;42.52;94499.97;5004120;28;21001;-58
2022/11/05 08:32:12;;;;;;;35.73;19.70;;;23.90;62.40;;;24.63;42.77;94508.66;5007116;28;20477;-59
2022/11/05 08:34:39;;;;;;;32.70;21.03;;;24.10;61.90;;;24.90;41.78;94502.72;5001742;28;21004;-54
2022/11/05 08:37:06;;;;;;;37.43;22.13;;;24.30;59.90;;;25.01;41.09;94496.47;5002996;28;20511;-57
2022/11/05 08:39:34;;;;;;;29.90;19.97;;;24.50;59.80;;;25.04;41.13;94501.38;5010024;28;20471;-59
2022/11/05 08:42:01;;;;;;;33.03;20.80;;;24.50;59.00;;;25.04;40.76;94497.88;5010943;28;20461;-55
2022/11/05 08:44:29;;;;;;;35.20;19.03;;;24.50;58.30;;;24.79;40.37;94495.50;5012391;28;20954;-55
2022/11/05 08:46:56;;;;;;;31.53;20.07;;;24.40;57.40;;;24.40;39.72;94497.88;5015289;28;20477;-56
2022/11/05 08:49:24;;;;;;;39.53;19.47;;;24.10;56.60;;;23.94;41.06;94493.09;5010448;28;20515;-56
2022/11/05 08:51:52;;;;;;;34.20;19.50;;;23.80;57.70;;;23.45;41.87;94490.53;5008226;28;20477;-56
2022/11/05 08:54:19;;;;;;;29.57;18.10;;;23.30;57.80;;;23.12;42.24;94499.03;5008880;28;20465;-56
2022/11/05 08:56:46;;;;;;;30.73;17.37;;;22.90;58.30;;;22.79;41.96;94500.25;5013248;28;20468;-59
2022/11/05 08:59:13;;;;;;;27.80;17.60;;;22.60;58.50;;;22.54;42.99;94503.84;5014422;28;20456;-58
2022/11/05 09:01:41;;;;;;;27.83;16.90;;;22.30;59.10;;;22.30;42.55;94502.00;5002135;28;20619;-59
2022/11/05 09:04:08;;;;;;;27.13;17.30;;;22.10;59.20;;;22.07;43.11;94497.28;5004152;28;20593;-56
2022/11/05 09:06:37;;;;;;;33.07;18.77;;;21.80;59.50;;;21.87;43.46;94490.25;5012992;28;20473;-56
2022/11/05 09:09:05;;;;;;;31.40;16.40;;;21.70;59.80;;;21.70;43.76;94484.63;5017854;28;20445;-57
2022/11/05 09:11:32;;;;;;;36.17;19.17;;;21.40;60.50;;;21.56;44.23;94483.91;5013845;28;20532;-55
2022/11/05 09:13:59;;;;;;;25.43;18.07;;;21.30;61.30;;;21.45;44.65;94484.59;5013351;28;20507;-56
2022/11/05 09:16:26;;;;;;;31.50;19.17;;;21.20;61.30;;;21.36;44.82;94491.22;5013457;28;21075;-57
2022/11/05 09:18:55;;;;;;;37.07;19.27;;;21.00;61.90;;;21.26;44.88;94481.00;5018420;28;20452;-57
2022/11/05 09:21:22;;;;;;;28.13;18.40;;;20.90;62.20;;;21.14;44.98;94473.66;5012932;28;20514;-57
2022/11/05 09:23:51;;;;;;;36.67;19.90;;;20.80;62.50;;;21.05;45.17;94474.97;5016774;28;20492;-57
2022/11/05 09:26:18;;;;;;;28.67;18.80;;;20.80;62.50;;;20.96;45.35;94473.59;5015890;28;20485;-56
2022/11/05 09:28:45;;;;;;;35.53;18.37;;;20.60;62.80;;;20.84;45.48;94477.97;5020398;28;20876;-55
2022/11/05 09:31:13;;;;;;;38.73;19.77;;;20.60;63.00;;;20.66;45.55;94466.09;5016548;28;20718;-58
2022/11/05 09:33:41;;;;;;;39.30;19.17;;;20.40;63.20;;;20.50;45.76;94466.56;5015982;28;20453;-55
2022/11/05 09:36:09;;;;;;;32.80;19.83;;;20.20;63.60;;;20.38;46.13;94453.84;5011421;28;20533;-57
2022/11/05 09:38:36;;;;;;;43.20;19.93;;;20.10;64.20;;;20.32;46.72;94460.03;5016327;28;20460;-56
2022/11/05 09:41:07;;;;;;;52.43;18.77;;;20.00;64.80;;;20.28;46.63;94472.19;5019243;28;20904;-55
2022/11/05 09:43:38;;;;;;;40.33;20.50;;;20.00;65.10;;;20.22;46.79;94465.00;5014990;28;20481;-57
2022/11/05 09:46:11;;;;;;;34.27;18.57;;;19.90;65.20;;;20.16;46.71;94461.31;5011912;28;20474;-55
2022/11/05 09:48:38;;;;;;;27.13;18.20;;;19.80;65.10;;;20.16;46.39;94455.16;5016181;28;20543;-54
2022/11/05 09:51:06;;;;;;;29.33;16.40;;;19.80;65.10;;;20.22;46.61;94463.16;5017874;28;20481;-58
2022/11/05 09:53:35;;;;;;;31.03;17.53;;;19.90;65.40;;;20.28;46.39;94458.81;5004463;28;20544;-60
2022/11/05 09:56:04;;;;;;;26.37;16.03;;;19.90;64.80;;;20.27;46.29;94467.06;5007007;28;20470;-56
2022/11/05 09:58:38;;;;;;;30.47;17.03;;;19.90;64.50;;;20.24;46.44;94465.59;5012362;28;20457;-54
2022/11/05 10:01:10;;;;;;;43.20;18.33;;;19.90;64.70;;;20.24;46.31;94462.94;5013654;28;20893;-58
2022/11/05 10:03:43;;;;;;;29.03;17.70;;;19.90;64.90;;;20.30;46.29;94467.44;5018061;28;20519;-55
2022/11/05 10:06:14;;;;;;;45.47;17.00;;;19.90;64.80;;;20.41;46.37;94465.97;5006936;28;21039;-59
2022/11/05 10:08:43;;;;;;;33.90;17.10;;;20.00;65.00;;;20.57;46.30;94456.66;5012702;28;20446;-59
2022/11/05 10:11:16;;;;;;;23.23;15.80;;;20.10;64.80;;;20.70;45.92;94450.47;5019201;28;20527;-54
2022/11/05 10:13:45;;;;;;;24.73;16.20;;;20.30;64.50;;;20.78;45.65;94444.88;5013077;28;20914;-55
2022/11/05 10:16:22;;;;;;;27.13;15.20;;;20.40;64.00;;;20.84;45.31;94443.22;5017727;28;20465;-54
2022/11/05 10:18:53;;;;;;;27.70;15.80;;;20.40;63.60;;;20.86;45.18;94433.13;5013805;28;20433;-55
2022/11/05 10:21:20;;;;;;;29.30;16.23;;;20.50;63.50;;;20.87;45.16;94435.56;5009732;28;21060;-54
2022/11/05 10:23:48;;;;;;;28.27;16.17;;;20.50;63.30;;;20.90;45.10;94439.69;5012296;28;20580;-61
2022/11/05 10:26:19;;;;;;;34.53;16.40;;;20.50;63.30;;;20.89;45.35;94438.84;5011479;28;20481;-60
2022/11/05 10:28:46;;;;;;;25.70;15.80;;;20.50;63.40;;;20.92;45.45;94437.59;5009571;28;20445;-57
2022/11/05 10:31:16;;;;;;;26.03;16.83;;;20.50;63.30;;;20.93;45.05;94439.25;5015744;28;20472;-60
2022/11/05 10:33:45;;;;;;;26.50;16.70;;;20.60;63.30;;;20.93;45.02;94433.91;5014553;28;20511;-55
2022/11/05 10:36:19;;;;;;;33.40;14.30;;;20.60;62.90;;;20.91;44.38;94434.13;5008783;28;20542;-59
2022/11/05 10:38:46;;;;;;;21.50;14.10;;;20.50;62.00;;;20.84;44.45;94427.19;4999751;28;20450;-55
2022/11/05 10:41:33;;;;;;;34.20;16.00;;;20.50;61.40;;;20.79;44.19;94438.50;5006503;28;20473;-59
2022/11/05 10:44:08;;;;;;;23.40;14.43;;;20.50;61.80;;;20.80;44.52;94433.97;5011578;28;20487;-60
2022/11/05 10:46:39;;;;;;;33.67;15.40;;;20.50;62.00;;;20.83;44.79;94436.22;5011390;28;20481;-56
2022/11/05 10:49:30;;;;;;;27.17;15.30;;;20.50;62.00;;;20.82;44.10;94426.56;5019492;28;20445;-59
2022/11/05 10:51:58;;;;;;;28.10;14.50;;;20.40;61.50;;;20.85;44.50;94437.66;5012590;28;20468;-61
2022/11/05 10:54:29;;;;;;;26.10;15.60;;;20.50;61.60;;;20.86;44.06;94433.94;5009048;28;20532;-56